createdAt,value
2023-07-18T00:02:00.538Z,97941.50
2023-07-18T00:04:29.302Z,97954.78
2023-07-18T00:06:57.257Z,97949.56
2023-07-18T00:09:25.578Z,97948.16
2023-07-18T00:11:53.474Z,97948.47
2023-07-18T00:14:21.338Z,97951.03
2023-07-18T00:16:49.377Z,97947.16
2023-07-18T00:19:20.707Z,97932.31
2023-07-18T00:21:49.033Z,97943.41
2023-07-18T00:24:17.000Z,97951.59
2023-07-18T00:26:44.944Z,97946.91
2023-07-18T00:29:12.789Z,97948.09
2023-07-18T00:31:40.702Z,97948.34
2023-07-18T00:34:08.557Z,97943.47
2023-07-18T00:36:37.753Z,97950.72
2023-07-18T00:39:05.700Z,97954.56
2023-07-18T00:41:33.547Z,97949.00
2023-07-18T00:44:01.445Z,97929.44
2023-07-18T00:46:30.394Z,97954.16
2023-07-18T00:48:59.075Z,97962.47
2023-07-18T00:54:51.298Z,97964.88
2023-07-18T00:57:19.214Z,97963.50
2023-07-18T00:59:47.020Z,97968.94
2023-07-18T01:02:14.951Z,97969.16
2023-07-18T01:04:42.873Z,97959.75
2023-07-18T01:07:10.757Z,97955.59
2023-07-18T01:09:38.637Z,97955.00
2023-07-18T01:12:08.990Z,97953.31
2023-07-18T01:14:36.828Z,97956.28
2023-07-18T01:17:06.698Z,97958.19
2023-07-18T01:19:36.461Z,97960.22
2023-07-18T01:22:06.069Z,97956.94
2023-07-18T01:24:33.950Z,97952.94
2023-07-18T01:27:01.769Z,97957.84
2023-07-18T01:29:29.608Z,97951.06
2023-07-18T01:31:57.433Z,97946.47
2023-07-18T01:34:25.397Z,97939.69
2023-07-18T01:36:54.018Z,97944.97
2023-07-18T01:39:23.233Z,97940.78
2023-07-18T01:41:51.073Z,97948.81
2023-07-18T01:44:19.109Z,97949.03
2023-07-18T01:46:47.029Z,97950.13
2023-07-18T01:49:14.927Z,97950.22
2023-07-18T01:51:42.817Z,97949.56
2023-07-18T01:54:10.679Z,97939.31
2023-07-18T01:56:41.315Z,97944.63
2023-07-18T01:59:09.240Z,97932.44
2023-07-18T02:01:37.132Z,97932.56
2023-07-18T02:04:05.092Z,97935.31
2023-07-18T02:06:32.885Z,97937.97
2023-07-18T02:09:00.786Z,97930.97
2023-07-18T02:11:28.616Z,97932.78
2023-07-18T02:13:57.851Z,97932.78
2023-07-18T02:16:25.715Z,97933.72
2023-07-18T02:18:54.840Z,97936.38
2023-07-18T02:21:22.846Z,97935.53
2023-07-18T02:23:50.671Z,97944.44
2023-07-18T02:26:18.485Z,97942.75
2023-07-18T02:28:46.412Z,97930.78
2023-07-18T02:31:15.592Z,97932.38
2023-07-18T02:33:43.486Z,97933.31
2023-07-18T02:36:12.786Z,97936.94
2023-07-18T02:38:40.668Z,97932.72
2023-07-18T02:41:08.467Z,97934.50
2023-07-18T02:43:36.299Z,97932.91
2023-07-18T02:46:04.066Z,97926.88
2023-07-18T02:48:33.248Z,97916.53
2023-07-18T02:51:01.020Z,97925.41
2023-07-18T02:53:28.900Z,97926.38
2023-07-18T02:55:56.668Z,97935.25
2023-07-18T02:58:24.491Z,97937.91
2023-07-18T03:00:53.185Z,97937.19
2023-07-18T03:03:23.936Z,97939.94
2023-07-18T03:05:54.830Z,97941.75
2023-07-18T03:08:22.604Z,97940.03
2023-07-18T03:10:51.402Z,97944.59
2023-07-18T03:13:19.198Z,97947.22
2023-07-18T03:15:47.769Z,97950.13
2023-07-18T03:18:15.580Z,97950.31
2023-07-18T03:20:43.404Z,97945.03
2023-07-18T03:23:12.632Z,97946.81
2023-07-18T03:25:40.474Z,97941.63
2023-07-18T03:28:09.702Z,97940.16
2023-07-18T03:30:37.793Z,97945.34
2023-07-18T03:33:05.676Z,97935.81
2023-07-18T03:35:33.808Z,97932.44
2023-07-18T03:38:01.634Z,97926.31
2023-07-18T03:40:30.821Z,97933.41
2023-07-18T03:42:58.621Z,97932.44
2023-07-18T03:45:26.411Z,97930.00
2023-07-18T03:47:54.286Z,97929.91
2023-07-18T03:50:22.110Z,97924.72
2023-07-18T03:52:50.025Z,97926.50
2023-07-18T03:55:17.889Z,97927.25
2023-07-18T03:57:47.073Z,97918.47
2023-07-18T04:00:18.429Z,97930.75
2023-07-18T04:02:47.673Z,97920.19
2023-07-18T04:05:16.324Z,97925.22
2023-07-18T04:07:45.327Z,97924.28
2023-07-18T04:10:13.836Z,97920.19
2023-07-18T04:12:41.681Z,97903.03
2023-07-18T04:15:12.812Z,97926.50
2023-07-18T04:17:41.202Z,97928.19
2023-07-18T04:20:09.724Z,97919.19
2023-07-18T04:22:37.617Z,97918.13
2023-07-18T04:25:06.223Z,97925.09
2023-07-18T04:27:34.014Z,97926.47
2023-07-18T04:30:01.761Z,97921.81
2023-07-18T04:32:32.011Z,97919.69
2023-07-18T04:34:59.845Z,97920.19
2023-07-18T04:37:29.350Z,97912.78
2023-07-18T04:39:57.184Z,97915.09
2023-07-18T04:42:24.985Z,97920.03
2023-07-18T04:44:52.729Z,97910.69
2023-07-18T04:47:21.455Z,97906.66
2023-07-18T04:49:50.681Z,97904.41
2023-07-18T04:52:18.745Z,97901.19
2023-07-18T04:54:46.543Z,97902.31
2023-07-18T04:57:14.349Z,97901.66
2023-07-18T04:59:42.862Z,97898.44
2023-07-18T05:02:10.728Z,97894.16
2023-07-18T05:04:38.617Z,97894.31
2023-07-18T05:07:08.411Z,97883.22
2023-07-18T05:09:36.449Z,97892.06
2023-07-18T05:12:04.661Z,97891.00
2023-07-18T05:14:32.864Z,97894.50
2023-07-18T05:17:00.805Z,97904.31
2023-07-18T05:19:28.610Z,97906.94
2023-07-18T05:21:56.364Z,97903.47
2023-07-18T05:24:25.937Z,97903.47
2023-07-18T05:26:54.126Z,97901.63
2023-07-18T05:29:21.919Z,97899.97
2023-07-18T05:31:49.723Z,97905.16
2023-07-18T05:34:17.848Z,97902.50
2023-07-18T05:36:45.727Z,97905.97
2023-07-18T05:39:13.556Z,97903.66
2023-07-18T05:41:42.690Z,97900.25
2023-07-18T05:44:11.346Z,97898.03
2023-07-18T05:46:41.040Z,97899.47
2023-07-18T05:49:09.282Z,97896.50
2023-07-18T05:51:37.051Z,97888.50
2023-07-18T05:54:05.569Z,97902.25
2023-07-18T05:56:33.751Z,97902.94
2023-07-18T05:59:06.479Z,97904.97
2023-07-18T06:01:34.683Z,97898.28
2023-07-18T06:04:02.773Z,97896.34
2023-07-18T06:06:30.596Z,97898.34
2023-07-18T06:08:58.379Z,97893.28
2023-07-18T06:11:26.189Z,97888.53
2023-07-18T06:13:53.949Z,97879.56
2023-07-18T06:16:23.177Z,97881.19
2023-07-18T06:18:50.972Z,97877.28
2023-07-18T06:21:18.998Z,97869.03
2023-07-18T06:23:47.705Z,97875.38
2023-07-18T06:26:15.721Z,97880.88
2023-07-18T06:28:43.566Z,97881.34
2023-07-18T06:31:11.960Z,97884.47
2023-07-18T06:33:41.606Z,97877.06
2023-07-18T06:36:09.477Z,97881.16
2023-07-18T06:38:37.345Z,97879.94
2023-07-18T06:41:05.136Z,97876.19
2023-07-18T06:43:33.573Z,97881.84
2023-07-18T06:46:01.703Z,97875.41
2023-07-18T06:48:29.534Z,97883.06
2023-07-18T06:51:00.783Z,97861.47
2023-07-18T06:53:28.834Z,97874.13
2023-07-18T06:55:56.966Z,97871.59
2023-07-18T06:58:24.877Z,97882.00
2023-07-18T07:00:52.791Z,97882.25
2023-07-18T07:03:20.751Z,97883.94
2023-07-18T07:05:48.686Z,97875.38
2023-07-18T07:08:20.228Z,97878.47
2023-07-18T07:10:48.059Z,97878.91
2023-07-18T07:13:15.919Z,97871.16
2023-07-18T07:15:43.717Z,97875.84
2023-07-18T07:18:11.541Z,97869.78
2023-07-18T07:20:39.324Z,97867.00
2023-07-18T07:23:07.178Z,97871.22
2023-07-18T07:25:36.439Z,97864.03
2023-07-18T07:28:05.401Z,97859.56
2023-07-18T07:30:33.290Z,97866.44
2023-07-18T07:33:01.329Z,97860.41
2023-07-18T07:35:30.502Z,97861.78
2023-07-18T07:37:58.390Z,97860.41
2023-07-18T07:40:26.210Z,97857.47
2023-07-18T07:42:55.352Z,97861.94
2023-07-18T07:45:23.225Z,97864.19
2023-07-18T07:47:51.189Z,97830.91
2023-07-18T07:50:19.027Z,97847.50
2023-07-18T07:52:47.504Z,97850.00
2023-07-18T07:55:15.468Z,97846.28
2023-07-18T07:57:43.452Z,97838.34
2023-07-18T08:00:14.258Z,97842.56
2023-07-18T08:02:42.105Z,97846.97
2023-07-18T08:05:10.485Z,97846.00
2023-07-18T08:07:39.215Z,97836.59
2023-07-18T08:10:07.818Z,97843.16
2023-07-18T08:12:36.167Z,97839.41
2023-07-18T08:15:05.287Z,97839.31
2023-07-18T08:17:34.578Z,97835.56
2023-07-18T08:20:05.490Z,97826.28
2023-07-18T08:22:35.477Z,97826.41
2023-07-18T08:25:05.062Z,97823.22
2023-07-18T08:27:32.981Z,97824.75
2023-07-18T08:30:00.786Z,97826.59
2023-07-18T08:32:30.237Z,97827.81
2023-07-18T08:34:59.586Z,97822.72
2023-07-18T08:37:27.434Z,97818.25
2023-07-18T08:39:55.232Z,97818.81
2023-07-18T08:42:26.978Z,97812.28
2023-07-18T08:44:56.244Z,97813.03
2023-07-18T08:47:24.170Z,97806.88
2023-07-18T08:49:52.072Z,97803.25
2023-07-18T08:52:21.282Z,97804.88
2023-07-18T08:54:50.899Z,97811.66
2023-07-18T08:57:19.461Z,97810.56
2023-07-18T08:59:48.971Z,97809.59
2023-07-18T09:02:16.846Z,97799.34
2023-07-18T09:04:47.671Z,97798.84
2023-07-18T09:07:15.755Z,97783.44
2023-07-18T09:09:49.096Z,97776.97
2023-07-18T09:12:17.023Z,97768.25
2023-07-18T09:14:45.012Z,97766.31
2023-07-18T09:17:13.190Z,97738.91
2023-07-18T09:19:41.977Z,97732.56
2023-07-18T09:22:11.262Z,97726.84
2023-07-18T09:24:39.937Z,97742.09
2023-07-18T09:27:10.635Z,97742.25
2023-07-18T09:29:38.784Z,97745.53
2023-07-18T09:32:09.111Z,97733.66
2023-07-18T09:34:37.095Z,97718.00
2023-07-18T09:37:07.233Z,97715.47
2023-07-18T09:39:35.583Z,97719.44
2023-07-18T09:42:04.204Z,97715.56
2023-07-18T09:44:37.263Z,97714.38
2023-07-18T09:47:06.258Z,97723.50
2023-07-18T09:49:35.124Z,97729.00
2023-07-18T09:52:05.700Z,97729.78
2023-07-18T09:54:34.288Z,97745.78
2023-07-18T09:57:05.630Z,97740.69
2023-07-18T09:59:38.580Z,97748.00
2023-07-18T10:02:07.898Z,97745.81
2023-07-18T10:04:36.087Z,97742.66
2023-07-18T10:07:04.842Z,97776.16
2023-07-18T10:09:34.020Z,97770.53
2023-07-18T10:12:09.328Z,97777.50
2023-07-18T10:14:51.757Z,97774.91
2023-07-18T10:17:39.515Z,97786.34
2023-07-18T10:20:14.770Z,97788.34
2023-07-18T10:22:50.681Z,97796.50
2023-07-18T10:25:22.096Z,97784.34
2023-07-18T10:27:50.845Z,97773.44
2023-07-18T10:30:21.274Z,97770.34
2023-07-18T10:32:54.266Z,97724.75
2023-07-18T10:35:23.773Z,97744.56
2023-07-18T10:37:54.028Z,97755.38
2023-07-18T10:40:37.227Z,97722.97
2023-07-18T10:43:07.660Z,97727.16
2023-07-18T10:45:40.750Z,97709.53
2023-07-18T10:48:13.752Z,97714.38
2023-07-18T10:50:41.805Z,97680.69
2023-07-18T10:53:12.916Z,97681.06
2023-07-18T10:55:40.820Z,97682.44
2023-07-18T10:58:12.505Z,97668.66
2023-07-18T11:00:41.985Z,97655.66
2023-07-18T11:03:12.382Z,97667.88
2023-07-18T11:05:41.615Z,97637.13
2023-07-18T11:08:09.380Z,97663.03
2023-07-18T11:10:37.290Z,97657.53
2023-07-18T11:13:06.018Z,97643.91
2023-07-18T11:15:33.818Z,97644.34
2023-07-18T11:18:03.997Z,97650.28
2023-07-18T11:20:31.954Z,97650.06
2023-07-18T11:23:01.601Z,97632.78
2023-07-18T11:25:29.608Z,97625.59
2023-07-18T11:27:57.361Z,97646.88
2023-07-18T11:30:26.141Z,97629.75
2023-07-18T11:32:54.012Z,97631.41
2023-07-18T11:35:24.525Z,97637.56
2023-07-18T11:37:53.586Z,97639.41
2023-07-18T11:40:22.928Z,97637.06
2023-07-18T11:42:51.857Z,97638.50
2023-07-18T11:45:21.579Z,97637.22
2023-07-18T11:47:51.055Z,97627.97
2023-07-18T11:50:19.086Z,97637.22
2023-07-18T11:52:50.072Z,97625.97
2023-07-18T11:55:18.716Z,97618.19
2023-07-18T11:57:47.008Z,97607.47
2023-07-18T12:00:15.964Z,97619.16
2023-07-18T12:02:45.612Z,97601.00
2023-07-18T12:05:15.348Z,97600.97
2023-07-18T12:07:44.419Z,97599.31
2023-07-18T12:10:15.894Z,97593.09
2023-07-18T12:12:45.795Z,97595.41
2023-07-18T12:15:14.730Z,97585.91
2023-07-18T12:17:42.695Z,97580.34
2023-07-18T12:20:12.001Z,97587.41
2023-07-18T12:22:40.125Z,97578.22
2023-07-18T12:25:08.642Z,97566.59
2023-07-18T12:27:38.251Z,97559.19
2023-07-18T12:30:07.459Z,97555.91
2023-07-18T12:32:35.360Z,97544.69
2023-07-18T12:35:03.731Z,97534.69
2023-07-18T12:37:31.604Z,97517.66
2023-07-18T12:39:59.448Z,97516.63
2023-07-18T12:42:27.311Z,97519.53
2023-07-18T12:44:56.520Z,97519.47
2023-07-18T12:47:24.443Z,97525.16
2023-07-18T12:52:22.959Z,97517.06
2023-07-18T12:54:50.764Z,97517.84
2023-07-18T12:57:18.561Z,97508.09
2023-07-18T12:59:46.872Z,97498.34
2023-07-18T13:02:16.449Z,97489.50
2023-07-18T13:04:44.425Z,97497.75
2023-07-18T13:07:12.301Z,97489.56
2023-07-18T13:09:40.594Z,97484.78
2023-07-18T13:12:09.578Z,97491.00
2023-07-18T13:14:37.414Z,97472.88
2023-07-18T13:17:05.559Z,97468.28
2023-07-18T13:19:35.307Z,97460.09
2023-07-18T13:22:03.276Z,97456.13
2023-07-18T13:24:31.106Z,97457.63
2023-07-18T13:26:58.919Z,97459.38
2023-07-18T13:29:26.752Z,97452.22
2023-07-18T13:31:54.624Z,97446.53
2023-07-18T13:34:23.160Z,97447.28
2023-07-18T13:36:52.435Z,97450.63
2023-07-18T13:39:20.225Z,97443.56
2023-07-18T13:41:48.131Z,97456.59
2023-07-18T13:44:16.022Z,97451.53
2023-07-18T13:46:43.982Z,97448.28
2023-07-18T13:49:11.808Z,97451.13
2023-07-18T13:51:40.491Z,97446.09
2023-07-18T13:54:09.810Z,97452.28
2023-07-18T13:56:37.628Z,97448.72
2023-07-18T13:59:05.449Z,97405.88
2023-07-18T14:01:33.347Z,97435.97
2023-07-18T14:04:01.253Z,97437.63
2023-07-18T14:06:29.228Z,97410.41
2023-07-18T14:08:57.021Z,97443.38
2023-07-18T14:11:28.344Z,97438.06
2023-07-18T14:13:57.816Z,97439.47
2023-07-18T14:16:25.827Z,97440.34
2023-07-18T14:18:57.316Z,97424.06
2023-07-18T14:21:25.626Z,97434.94
2023-07-18T14:23:53.704Z,97428.34
2023-07-18T14:26:22.378Z,97426.09
2023-07-18T14:28:51.911Z,97419.31
2023-07-18T14:31:19.799Z,97414.09
2023-07-18T14:33:59.948Z,97414.28
2023-07-18T14:36:33.058Z,97416.69
2023-07-18T14:39:00.943Z,97391.75
2023-07-18T14:41:28.790Z,97407.56
2023-07-18T14:43:58.106Z,97411.94
2023-07-18T14:46:26.020Z,97403.31
2023-07-18T14:48:54.144Z,97390.50
2023-07-18T14:51:22.594Z,97391.25
2023-07-18T14:53:50.476Z,97388.81
2023-07-18T14:56:18.530Z,97384.03
2023-07-18T14:58:46.525Z,97380.25
2023-07-18T15:01:15.803Z,97383.28
2023-07-18T15:03:43.670Z,97388.09
2023-07-18T15:06:11.527Z,97373.09
2023-07-18T15:08:40.278Z,97371.41
2023-07-18T15:11:08.141Z,97361.84
2023-07-18T15:13:35.930Z,97358.63
2023-07-18T15:16:04.271Z,97363.09
2023-07-18T15:18:33.478Z,97361.06
2023-07-18T15:21:01.540Z,97350.81
2023-07-18T15:23:29.352Z,97344.19
2023-07-18T15:25:58.289Z,97344.97
2023-07-18T15:28:26.132Z,97334.91
2023-07-18T15:30:53.961Z,97337.03
2023-07-18T15:33:27.370Z,97348.00
2023-07-18T15:35:57.107Z,97327.56
2023-07-18T15:38:25.216Z,97336.25
2023-07-18T15:40:53.013Z,97326.28
2023-07-18T15:43:20.841Z,97331.13
2023-07-18T15:45:49.144Z,97305.63
2023-07-18T15:48:17.347Z,97321.09
2023-07-18T15:50:45.194Z,97327.13
2023-07-18T15:53:14.374Z,97314.81
2023-07-18T15:55:42.444Z,97307.78
2023-07-18T15:58:10.510Z,97302.38
2023-07-18T16:00:38.366Z,97300.13
2023-07-18T16:03:06.439Z,97294.81
2023-07-18T16:05:34.426Z,97293.97
2023-07-18T16:08:02.211Z,97291.84
2023-07-18T16:10:31.452Z,97285.31
2023-07-18T16:12:59.398Z,97282.34
2023-07-18T16:15:27.389Z,97286.72
2023-07-18T16:17:55.513Z,97273.44
2023-07-18T16:20:23.531Z,97275.69
2023-07-18T16:22:51.915Z,97246.91
2023-07-18T16:25:19.867Z,97267.97
2023-07-18T16:27:50.123Z,97263.13
2023-07-18T16:30:19.154Z,97263.72
2023-07-18T16:32:47.138Z,97256.16
2023-07-18T16:35:15.340Z,97252.03
2023-07-18T16:37:43.377Z,97252.13
2023-07-18T16:40:12.207Z,97241.19
2023-07-18T16:42:40.006Z,97247.03
2023-07-18T16:45:10.151Z,97253.44
2023-07-18T16:47:38.021Z,97230.16
2023-07-18T16:50:07.025Z,97233.94
2023-07-18T16:52:34.845Z,97230.97
2023-07-18T16:55:02.754Z,97234.63
2023-07-18T16:57:30.567Z,97234.97
2023-07-18T16:59:58.429Z,97237.16
2023-07-18T17:02:27.853Z,97237.34
2023-07-18T17:04:56.089Z,97229.63
2023-07-18T17:07:24.889Z,97225.53
2023-07-18T17:09:52.662Z,97229.69
2023-07-18T17:12:20.486Z,97225.59
2023-07-18T17:14:48.278Z,97225.63
2023-07-18T17:17:16.147Z,97219.69
2023-07-18T17:19:58.906Z,97208.50
2023-07-18T17:22:34.221Z,97205.44
2023-07-18T17:25:04.585Z,97204.22
2023-07-18T17:27:32.470Z,97202.72
2023-07-18T17:30:01.793Z,97211.22
2023-07-18T17:32:29.794Z,97213.66
2023-07-18T17:34:59.031Z,97207.38
2023-07-18T17:37:27.046Z,97207.97
2023-07-18T17:42:27.025Z,97194.88
2023-07-18T17:44:56.684Z,97196.06
2023-07-18T17:47:24.628Z,97195.44
2023-07-18T17:49:52.482Z,97192.06
2023-07-18T17:52:21.686Z,97186.63
2023-07-18T17:54:49.503Z,97188.41
2023-07-18T17:57:17.389Z,97188.81
2023-07-18T17:59:45.242Z,97193.59
2023-07-18T18:02:13.191Z,97188.41
2023-07-18T18:04:41.257Z,97183.88
2023-07-18T18:07:10.142Z,97177.47
2023-07-18T18:09:41.280Z,97175.88
2023-07-18T18:12:09.521Z,97178.84
2023-07-18T18:14:37.373Z,97180.97
2023-07-18T18:17:05.861Z,97181.63
2023-07-18T18:19:33.907Z,97187.75
2023-07-18T18:22:02.464Z,97186.19
2023-07-18T18:24:30.454Z,97175.59
2023-07-18T18:27:00.040Z,97176.22
2023-07-18T18:29:29.591Z,97180.00
2023-07-18T18:31:57.416Z,97187.56
2023-07-18T18:34:25.212Z,97179.66
2023-07-18T18:36:53.057Z,97185.13
2023-07-18T18:39:21.840Z,97188.91
2023-07-18T18:41:49.694Z,97182.03
2023-07-18T18:44:18.865Z,97197.66
2023-07-18T18:46:46.763Z,97186.88
2023-07-18T18:49:26.125Z,97177.75
2023-07-18T18:51:55.338Z,97188.72
2023-07-18T18:54:23.483Z,97184.34
2023-07-18T18:56:53.841Z,97187.22
2023-07-18T18:59:23.162Z,97181.81
2023-07-18T19:01:52.024Z,97175.16
2023-07-18T19:04:20.296Z,97174.66
2023-07-18T19:06:48.202Z,97171.09
2023-07-18T19:09:16.036Z,97163.78
2023-07-18T19:11:43.864Z,97168.31
2023-07-18T19:14:11.770Z,97170.75
2023-07-18T19:16:41.219Z,97169.66
2023-07-18T19:19:09.471Z,97164.78
2023-07-18T19:21:37.343Z,97166.41
2023-07-18T19:24:05.915Z,97171.28
2023-07-18T19:26:34.089Z,97172.50
2023-07-18T19:29:01.941Z,97174.31
2023-07-18T19:31:29.841Z,97180.03
2023-07-18T19:33:59.095Z,97193.81
2023-07-18T19:36:26.961Z,97194.13
2023-07-18T19:38:54.817Z,97200.47
2023-07-18T19:41:24.313Z,97199.19
2023-07-18T19:43:52.232Z,97201.38
2023-07-18T19:46:20.511Z,97199.22
2023-07-18T19:48:48.439Z,97202.03
2023-07-18T19:51:18.039Z,97198.25
2023-07-18T19:53:46.257Z,97192.78
2023-07-18T19:56:14.753Z,97184.63
2023-07-18T19:58:43.154Z,97187.25
2023-07-18T20:01:11.010Z,97183.00
2023-07-18T20:03:56.428Z,97182.09
2023-07-18T20:06:28.299Z,97188.59
2023-07-18T20:08:56.216Z,97189.34
2023-07-18T20:11:24.140Z,97193.41
2023-07-18T20:13:52.416Z,97196.41
2023-07-18T20:16:20.515Z,97199.00
2023-07-18T20:18:51.699Z,97200.59
2023-07-18T20:21:22.061Z,97186.03
2023-07-18T20:23:51.609Z,97183.91
2023-07-18T20:26:19.470Z,97179.28
2023-07-18T20:28:47.550Z,97175.47
2023-07-18T20:31:15.470Z,97159.69
2023-07-18T20:33:43.817Z,97170.81
2023-07-18T20:36:11.752Z,97161.00
2023-07-18T20:38:39.628Z,97157.00
2023-07-18T20:41:10.307Z,97166.47
2023-07-18T20:43:38.370Z,97165.16
2023-07-18T20:46:08.704Z,97161.66
2023-07-18T20:48:37.884Z,97159.31
2023-07-18T20:51:06.937Z,97157.66
2023-07-18T20:53:34.860Z,97162.00
2023-07-18T20:56:02.782Z,97166.38
2023-07-18T20:58:32.350Z,97157.66
2023-07-18T21:01:00.227Z,97153.19
2023-07-18T21:03:28.901Z,97155.44
2023-07-18T21:05:56.879Z,97168.56
2023-07-18T21:08:24.702Z,97147.81
2023-07-18T21:10:52.488Z,97155.75
2023-07-18T21:13:20.317Z,97157.97
2023-07-18T21:15:49.533Z,97167.38
2023-07-18T21:18:17.395Z,97171.47
2023-07-18T21:20:45.214Z,97162.28
2023-07-18T21:23:13.126Z,97168.81
2023-07-18T21:25:41.023Z,97164.00
2023-07-18T21:28:08.945Z,97155.00
2023-07-18T21:30:36.783Z,97164.22
2023-07-18T21:33:06.142Z,97154.88
2023-07-18T21:35:34.022Z,97151.53
2023-07-18T21:38:01.841Z,97164.66
2023-07-18T21:40:29.674Z,97160.66
2023-07-18T21:42:57.479Z,97165.38
2023-07-18T21:45:25.317Z,97161.03
2023-07-18T21:47:53.173Z,97161.19
2023-07-18T21:50:22.529Z,97150.63
2023-07-18T21:52:50.315Z,97161.19
2023-07-18T21:55:18.182Z,97150.84
2023-07-18T21:57:46.112Z,97152.03
2023-07-18T22:00:15.840Z,97143.81
2023-07-18T22:02:43.829Z,97144.66
2023-07-18T22:05:11.738Z,97154.69
2023-07-18T22:07:40.919Z,97157.38
2023-07-18T22:10:10.016Z,97148.50
2023-07-18T22:12:38.364Z,97147.50
2023-07-18T22:15:08.983Z,97135.94
2023-07-18T22:17:36.979Z,97128.91
2023-07-18T22:20:05.325Z,97130.28
2023-07-18T22:22:33.197Z,97142.00
2023-07-18T22:25:02.938Z,97133.13
2023-07-18T22:27:30.869Z,97134.31
2023-07-18T22:29:58.695Z,97124.25
2023-07-18T22:32:26.544Z,97117.59
2023-07-18T22:34:54.329Z,97115.09
2023-07-18T22:37:23.625Z,97100.94
2023-07-18T22:39:51.472Z,97136.00
2023-07-18T22:42:21.961Z,97126.28
2023-07-18T22:44:50.518Z,97129.44
2023-07-18T22:47:19.096Z,97120.56
2023-07-18T22:49:47.539Z,97122.59
2023-07-18T22:52:19.575Z,97126.94
2023-07-18T22:54:48.233Z,97134.13
2023-07-18T22:57:16.083Z,97128.13
2023-07-18T22:59:48.021Z,97125.44
2023-07-18T23:02:16.049Z,97114.53
2023-07-18T23:04:43.922Z,97109.19
2023-07-18T23:07:11.782Z,97114.72
2023-07-18T23:09:39.862Z,97112.25
2023-07-18T23:12:09.189Z,97132.84
2023-07-18T23:14:37.087Z,97128.66
2023-07-18T23:17:06.489Z,97122.81
2023-07-18T23:19:34.292Z,97131.06
2023-07-18T23:22:02.229Z,97123.91
2023-07-18T23:24:30.431Z,97132.44
2023-07-18T23:26:58.244Z,97138.84
2023-07-18T23:29:26.136Z,97136.66
2023-07-18T23:31:53.968Z,97134.22
2023-07-18T23:34:23.187Z,97137.94
2023-07-18T23:36:50.988Z,97136.13
2023-07-18T23:39:19.130Z,97136.16
2023-07-18T23:41:46.929Z,97133.34
2023-07-18T23:44:14.804Z,97126.03
2023-07-18T23:46:42.733Z,97124.03
2023-07-18T23:49:10.644Z,97113.56
2023-07-18T23:51:40.809Z,97119.56
2023-07-18T23:54:08.834Z,97106.88
2023-07-18T23:56:36.659Z,97112.72
2023-07-18T23:59:04.513Z,97114.06
